Time;durP1;ratioP1;P1;durP2;ratioP2;P2;SDS_P1;SDS_P2;PMS_P1;PMS_P2;Temp;Humidity;BMP_temperature;BMP_pressure;BME280_temperature;BME280_humidity;BME280_pressure;Samples;Min_cycle;Max_cycle;Signal;HPM_P1;HPM_P2
2023/12/13 00:05:12;;;;;;;;;;;8.20;99.90;;;;;;6702933;88;20047;-77
2023/12/13 00:15:12;;;;;;;;;;;8.30;99.90;;;;;;6709179;88;20046;-77
2023/12/13 00:25:13;;;;;;;;;;;8.40;99.90;;;;;;6711728;88;20056;-77
2023/12/13 00:35:13;;;;;;;;;;;8.40;99.90;;;;;;6711933;88;20065;-77
2023/12/13 00:45:14;;;;;;;;;;;8.30;99.90;;;;;;6702005;88;20109;-78
2023/12/13 00:55:15;;;;;;;;;;;8.30;99.90;;;;;;6704040;88;20503;-76
2023/12/13 01:05:16;;;;;;;;;;;8.20;99.90;;;;;;6703294;88;20056;-76
2023/12/13 01:15:16;;;;;;;;;;;8.20;99.90;;;;;;6702314;88;20514;-76
2023/12/13 01:25:17;;;;;;;;;;;8.10;99.90;;;;;;6709627;88;20062;-76
2023/12/13 01:35:18;;;;;;;;;;;8.20;99.90;;;;;;6709409;88;20422;-76
2023/12/13 01:45:18;;;;;;;;;;;8.20;99.90;;;;;;6703260;88;20153;-78
2023/12/13 01:55:19;;;;;;;;;;;8.30;99.90;;;;;;6702786;88;20071;-79
2023/12/13 02:05:20;;;;;;;;;;;8.40;99.90;;;;;;6712853;88;20148;-76
2023/12/13 02:15:21;;;;;;;;;;;8.40;99.90;;;;;;6706348;88;20094;-76
2023/12/13 02:25:28;;;;;;;;;;;8.60;99.90;;;;;;6708259;88;20146;-76
2023/12/13 02:35:29;;;;;;;;;;;8.70;99.90;;;;;;6712359;88;20051;-76
2023/12/13 02:45:32;;;;;;;;;;;8.60;99.90;;;;;;6705814;88;20120;-77
2023/12/13 02:55:32;;;;;;;;;;;8.60;99.90;;;;;;6704137;88;20078;-77
2023/12/13 03:05:33;;;;;;;;;;;8.70;99.90;;;;;;6707756;88;20193;-76
2023/12/13 03:15:33;;;;;;;;;;;8.60;99.90;;;;;;6702505;88;20073;-77
2023/12/13 03:25:34;;;;;;;;;;;8.60;99.90;;;;;;6700349;88;20067;-77
2023/12/13 03:35:34;;;;;;;;;;;8.40;99.90;;;;;;6700771;88;20081;-76
2023/12/13 03:45:35;;;;;;;;;;;8.40;99.90;;;;;;6708551;88;20094;-77
2023/12/13 03:55:35;;;;;;;;;;;8.40;99.90;;;;;;6707279;88;20491;-77
2023/12/13 04:05:35;;;;;;;;;;;8.40;99.90;;;;;;6712032;88;20069;-77
2023/12/13 04:15:36;;;;;;;;;;;8.30;99.90;;;;;;6706647;88;20067;-77
2023/12/13 04:25:37;;;;;;;;;;;8.10;99.90;;;;;;6705025;88;20051;-77
2023/12/13 04:35:38;;;;;;;;;;;7.90;99.90;;;;;;6708395;88;20246;-78
2023/12/13 04:45:38;;;;;;;;;;;7.90;99.90;;;;;;6709235;88;20150;-77
2023/12/13 04:55:39;;;;;;;;;;;7.70;99.90;;;;;;6702166;88;20097;-76
2023/12/13 05:05:39;;;;;;;;;;;7.90;99.90;;;;;;6703304;88;20069;-77
2023/12/13 05:15:40;;;;;;;;;;;8.00;99.90;;;;;;6706712;88;20084;-77
2023/12/13 05:25:40;;;;;;;;;;;7.80;99.90;;;;;;6713053;88;20113;-76
2023/12/13 05:35:41;;;;;;;;;;;7.20;99.90;;;;;;6699912;88;20088;-77
2023/12/13 05:45:41;;;;;;;;;;;7.10;99.90;;;;;;6704675;88;20083;-76
2023/12/13 05:55:42;;;;;;;;;;;6.90;99.90;;;;;;6703510;88;20189;-77
2023/12/13 06:05:43;;;;;;;;;;;6.60;99.90;;;;;;6703173;88;20621;-77
2023/12/13 06:15:44;;;;;;;;;;;6.30;99.90;;;;;;6714131;88;20894;-76
2023/12/13 06:25:44;;;;;;;;;;;6.20;99.90;;;;;;6699438;88;20085;-76
2023/12/13 06:35:44;;;;;;;;;;;6.30;99.90;;;;;;6699172;88;20495;-77
2023/12/13 06:45:45;;;;;;;;;;;6.30;99.90;;;;;;6707255;88;20052;-77
2023/12/13 06:55:45;;;;;;;;;;;6.40;99.90;;;;;;6706739;88;20080;-76
2023/12/13 07:05:46;;;;;;;;;;;6.40;99.90;;;;;;6701864;88;20084;-76
2023/12/13 07:15:46;;;;;;;;;;;6.30;99.90;;;;;;6704374;88;20117;-77
2023/12/13 07:25:47;;;;;;;;;;;6.30;99.90;;;;;;6712731;88;20502;-77
2023/12/13 07:35:47;;;;;;;;;;;6.40;99.90;;;;;;6709995;88;20059;-77
2023/12/13 07:45:55;;;;;;;;;;;6.40;99.90;;;;;;6707400;88;20095;-76
2023/12/13 07:55:55;;;;;;;;;;;6.40;99.90;;;;;;6704140;88;20542;-76
2023/12/13 08:05:56;;;;;;;;;;;6.50;99.90;;;;;;6699463;88;20157;-76
2023/12/13 08:15:56;;;;;;;;;;;6.50;99.90;;;;;;6711338;88;20094;-77
2023/12/13 08:25:57;;;;;;;;;;;6.50;99.90;;;;;;6707150;88;20098;-77
2023/12/13 08:35:59;;;;;;;;;;;6.70;99.90;;;;;;6706579;88;20090;-77
2023/12/13 08:45:59;;;;;;;;;;;6.70;99.90;;;;;;6708877;88;20071;-77
2023/12/13 08:55:59;;;;;;;;;;;6.90;99.90;;;;;;6702388;88;20178;-77
2023/12/13 09:06:01;;;;;;;;;;;6.90;99.90;;;;;;6702787;88;20052;-77
2023/12/13 09:16:01;;;;;;;;;;;7.00;99.90;;;;;;6703701;88;20120;-76
2023/12/13 09:26:04;;;;;;;;;;;7.20;99.90;;;;;;6704894;88;20055;-77
2023/12/13 09:36:06;;;;;;;;;;;7.30;99.90;;;;;;6704687;88;20130;-77
2023/12/13 09:46:08;;;;;;;;;;;7.40;99.90;;;;;;6700651;88;20526;-77
2023/12/13 09:56:09;;;;;;;;;;;7.30;99.90;;;;;;6707956;88;20091;-77
2023/12/13 10:06:10;;;;;;;;;;;7.30;99.90;;;;;;6705747;88;20347;-78
2023/12/13 10:16:11;;;;;;;;;;;7.60;99.90;;;;;;6710294;88;20063;-78
2023/12/13 10:26:12;;;;;;;;;;;8.70;99.90;;;;;;6714785;88;20086;-78
2023/12/13 10:46:16;;;;;;;;;;;10.10;99.90;;;;;;6746587;88;20547;-79
2023/12/13 10:56:17;;;;;;;;;;;10.90;99.90;;;;;;6743617;88;20115;-78
2023/12/13 11:06:17;;;;;;;;;;;10.80;99.90;;;;;;6738900;88;20150;-79
2023/12/13 11:16:22;;;;;;;;;;;11.20;99.90;;;;;;6738955;88;20054;-78
2023/12/13 11:26:23;;;;;;;;;;;11.70;99.90;;;;;;6739782;88;20066;-78
2023/12/13 11:36:24;;;;;;;;;;;12.20;99.90;;;;;;6738928;88;20119;-80
2023/12/13 11:46:25;;;;;;;;;;;12.10;99.90;;;;;;6753478;88;20058;-79
2023/12/13 11:56:26;;;;;;;;;;;12.00;99.90;;;;;;6757871;88;20190;-78
2023/12/13 12:06:26;;;;;;;;;;;12.00;99.90;;;;;;6757875;88;20116;-78
2023/12/13 12:16:27;;;;;;;;;;;13.00;99.90;;;;;;6741066;88;20260;-79
2023/12/13 12:26:27;;;;;;;;;;;13.50;99.90;;;;;;6746293;88;20069;-79
2023/12/13 12:36:28;;;;;;;;;;;14.40;99.90;;;;;;6742148;88;20092;-80
2023/12/13 12:46:28;;;;;;;;;;;13.50;99.90;;;;;;6736901;88;20109;-80
2023/12/13 12:56:28;;;;;;;;;;;12.80;99.90;;;;;;6749218;88;20054;-80
2023/12/13 13:06:29;;;;;;;;;;;12.90;99.90;;;;;;6745179;88;20056;-80
2023/12/13 13:16:31;;;;;;;;;;;13.70;99.90;;;;;;6741367;88;20107;-78
2023/12/13 13:26:31;;;;;;;;;;;14.90;99.90;;;;;;6743863;88;20074;-79
2023/12/13 13:36:32;;;;;;;;;;;15.10;99.90;;;;;;6744599;88;20630;-81
2023/12/13 13:46:32;;;;;;;;;;;15.10;99.90;;;;;;6751482;88;20053;-79
2023/12/13 13:56:32;;;;;;;;;;;15.50;99.90;;;;;;6752187;88;20140;-80
2023/12/13 14:06:33;;;;;;;;;;;15.60;99.90;;;;;;6746229;88;20046;-79
2023/12/13 14:16:33;;;;;;;;;;;15.40;99.90;;;;;;6746886;88;20455;-80
2023/12/13 14:26:34;;;;;;;;;;;14.70;99.90;;;;;;6744611;88;20494;-81
2023/12/13 14:36:34;;;;;;;;;;;14.40;99.90;;;;;;6737858;88;20084;-78
2023/12/13 14:46:36;;;;;;;;;;;14.00;99.90;;;;;;6747921;88;20061;-81
2023/12/13 14:56:36;;;;;;;;;;;13.30;99.90;;;;;;6740922;88;20569;-79
2023/12/13 15:06:37;;;;;;;;;;;12.20;99.90;;;;;;6737311;88;20655;-81
2023/12/13 15:16:37;;;;;;;;;;;11.30;99.90;;;;;;6754873;88;20104;-81
2023/12/13 15:26:38;;;;;;;;;;;10.70;99.90;;;;;;6732638;88;20183;-81
2023/12/13 15:36:42;;;;;;;;;;;10.00;99.90;;;;;;6743822;88;20064;-80
2023/12/13 15:46:42;;;;;;;;;;;9.80;99.90;;;;;;6739622;88;20063;-79
2023/12/13 15:56:43;;;;;;;;;;;9.60;99.90;;;;;;6745850;88;20057;-79
2023/12/13 16:06:43;;;;;;;;;;;9.40;99.90;;;;;;6734574;88;20505;-78
2023/12/13 16:16:44;;;;;;;;;;;9.50;99.90;;;;;;6740300;88;20071;-79
2023/12/13 16:26:44;;;;;;;;;;;9.60;99.90;;;;;;6734213;88;21977;-80
2023/12/13 16:36:45;;;;;;;;;;;9.50;99.90;;;;;;6740366;77;20130;-78
2023/12/13 16:46:45;;;;;;;;;;;9.40;99.90;;;;;;6727793;88;20077;-77
2023/12/13 16:56:45;;;;;;;;;;;9.50;99.90;;;;;;6723438;88;20077;-76
2023/12/13 17:06:46;;;;;;;;;;;9.30;99.90;;;;;;6724603;88;20050;-78
2023/12/13 17:16:46;;;;;;;;;;;9.20;99.90;;;;;;6718665;88;20183;-77
2023/12/13 17:26:47;;;;;;;;;;;9.10;99.90;;;;;;6701608;88;20055;-77
2023/12/13 17:36:47;;;;;;;;;;;9.10;99.90;;;;;;6708793;88;20137;-77
2023/12/13 17:46:48;;;;;;;;;;;9.10;99.90;;;;;;6710013;88;20117;-77
2023/12/13 17:56:50;;;;;;;;;;;9.00;99.90;;;;;;6708535;88;20072;-78
2023/12/13 18:06:52;;;;;;;;;;;8.70;99.90;;;;;;6703281;88;20161;-78
2023/12/13 18:16:52;;;;;;;;;;;8.40;99.90;;;;;;6720549;88;20069;-77
2023/12/13 18:26:53;;;;;;;;;;;8.40;99.90;;;;;;6720314;88;20054;-75
2023/12/13 18:36:53;;;;;;;;;;;8.40;99.90;;;;;;6718767;88;20070;-76
2023/12/13 18:46:54;;;;;;;;;;;8.20;99.90;;;;;;6717676;88;20081;-77
2023/12/13 18:56:55;;;;;;;;;;;8.10;99.90;;;;;;6717112;88;20504;-76
2023/12/13 19:06:55;;;;;;;;;;;8.10;99.90;;;;;;6716828;88;20058;-77
2023/12/13 19:16:56;;;;;;;;;;;8.10;99.90;;;;;;6714374;88;20059;-77
2023/12/13 19:26:56;;;;;;;;;;;7.90;99.90;;;;;;6716176;88;20054;-76
2023/12/13 19:36:57;;;;;;;;;;;7.60;99.90;;;;;;6719935;88;20070;-77
2023/12/13 19:46:57;;;;;;;;;;;7.50;99.90;;;;;;6716072;88;20065;-77
2023/12/13 19:56:58;;;;;;;;;;;7.60;99.90;;;;;;6717143;88;20062;-79
2023/12/13 20:06:58;;;;;;;;;;;7.60;99.90;;;;;;6716541;88;20050;-77
2023/12/13 20:16:58;;;;;;;;;;;7.40;99.90;;;;;;6716117;88;20131;-77
2023/12/13 20:26:59;;;;;;;;;;;7.40;99.90;;;;;;6723417;88;20083;-78
2023/12/13 20:36:59;;;;;;;;;;;7.40;99.90;;;;;;6719685;88;20615;-78
2023/12/13 20:47:00;;;;;;;;;;;7.30;99.90;;;;;;6718233;88;20083;-78
2023/12/13 20:57:00;;;;;;;;;;;7.20;99.90;;;;;;6717523;88;20096;-78
2023/12/13 21:07:01;;;;;;;;;;;7.10;99.90;;;;;;6717129;88;20043;-78
2023/12/13 21:17:01;;;;;;;;;;;7.20;99.90;;;;;;6721544;88;20094;-77
2023/12/13 21:27:02;;;;;;;;;;;7.10;99.90;;;;;;6714765;88;20085;-79
2023/12/13 21:37:03;;;;;;;;;;;7.10;99.90;;;;;;6729435;88;20581;-78
2023/12/13 21:47:03;;;;;;;;;;;7.20;99.90;;;;;;6722047;88;20093;-77
2023/12/13 21:57:04;;;;;;;;;;;7.10;99.90;;;;;;6720733;88;20555;-78
2023/12/13 22:07:04;;;;;;;;;;;7.00;99.90;;;;;;6719300;88;20067;-77
2023/12/13 22:17:04;;;;;;;;;;;6.90;99.90;;;;;;6721972;88;20073;-78
2023/12/13 22:27:05;;;;;;;;;;;6.90;99.90;;;;;;6730770;88;20070;-78
2023/12/13 22:37:05;;;;;;;;;;;7.10;99.90;;;;;;6720382;77;20147;-78
2023/12/13 22:47:06;;;;;;;;;;;7.00;99.90;;;;;;6707328;88;20091;-78
2023/12/13 22:57:06;;;;;;;;;;;6.90;99.90;;;;;;6700192;88;20109;-78
2023/12/13 23:07:07;;;;;;;;;;;6.80;99.90;;;;;;6698116;88;20109;-76
2023/12/13 23:17:08;;;;;;;;;;;6.90;99.90;;;;;;6698431;88;20048;-77
2023/12/13 23:27:08;;;;;;;;;;;6.90;99.90;;;;;;6709786;88;20074;-78
2023/12/13 23:37:08;;;;;;;;;;;6.90;99.90;;;;;;6697812;88;20143;-77
2023/12/13 23:47:09;;;;;;;;;;;6.90;99.90;;;;;;6698077;88;20072;-78
2023/12/13 23:57:09;;;;;;;;;;;7.10;99.90;;;;;;6698129;88;20585;-77
